首页
METAR-TAF:

METAR-TAF

机场 :

新加坡, 新加坡

新加坡樟宜机场

纬度: 01-22N, 经度: 103-59E, 海拔: 5米

当前天气观测

该预报发布于22分钟前的22:00 UTC
风速2节,风向多变
温度 28°C
湿度 89%
气压 1008 hPa
能见度10公里或以上
1500米以下无云,无积雨云

METAR: WSSS 252200Z VRB02KT CAVOK 28/26 Q1008 NOSIG

时间: 06:22 (22:22 UTC)

预报

该预报发布于5小时和22分钟前的17:00 UTC
预报有效从25日的 18点(UTC)到 27日的 00点(UTC)
风速7节,风向西
能见度10公里或以上
少量云层高于1800英尺, 积雨云.
散云层高于2000英尺
短暂存在
从 25日的 19点(UTC)到 26日的 00点(UTC)
风速15节,风向西,有时为25节阵风
能見度: 3000
少量云层高于1200英尺, 积雨云.
多云层高于1500英尺
雷暴, 雨

TAF: WSSS 251700Z 2518/2700 28007KT 9999 FEW018CB SCT020 TEMPO 2519/2600 27015G25KT 3000 TSRA FEW012CB BKN015

超过4000个机场的气象观测和天气预报(METAR&TAF报告)。

可查询的气象台以黄色和红色小点在地图上表示。

将鼠标移到小点上方,可查看气象台名称。

然后点击查看天气观测和预报。

如需切换地图:点击带黑十字的绿色按钮放大地图;点击带横线的绿色按钮缩小地图;或者点击绿色箭头查看邻近地区的地图。


METAR-TAF: